Terminal Aerodrome Forecast
Issued by NWS

Home | Current Version | Previous Version | Text Only | Print | Product List | Glossary On
Versions: 1 2 3 4 5 6 7 8 9 10 11 12 13 14 15 16 17
794
FTUS44 KLZK 202335
TAFPBF
TAF
KPBF 202335Z 2100/2124 18010G18KT P6SM VCSH SCT025 OVC080
      WS020/18040KT
     FM210800 19010G17KT 5SM -SHRA VCTS OVC015CB WS020/19040KT
     FM211100 32010KT 5SM -RA BR BKN008 OVC040
      TEMPO 2111/2115 2SM TSRA BR OVC008CB
     FM211500 36008G15KT 4SM -TSRA BR BKN005 OVC010CB=

USA.gov is the U.S. government's official web portal to all federal, state and local government web resources and services.